createdAt,value
2018-05-27T00:00:03.322Z,99.90
2018-05-27T00:02:29.666Z,99.90
2018-05-27T00:04:56.233Z,99.90
2018-05-27T00:07:22.601Z,99.90
2018-05-27T00:09:49.821Z,99.90
2018-05-27T00:12:16.463Z,99.90
2018-05-27T00:14:42.959Z,99.90
2018-05-27T00:17:09.623Z,99.90
2018-05-27T00:19:36.182Z,99.90
2018-05-27T00:22:02.898Z,99.90
2018-05-27T00:24:29.311Z,99.90
2018-05-27T00:26:56.064Z,99.90
2018-05-27T00:29:22.555Z,99.90
2018-05-27T00:31:48.953Z,99.90
2018-05-27T00:34:16.017Z,99.90
2018-05-27T00:36:43.185Z,99.90
2018-05-27T00:39:09.759Z,99.90
2018-05-27T00:41:36.239Z,99.90
2018-05-27T00:44:03.342Z,99.90
2018-05-27T00:46:29.708Z,99.90
2018-05-27T00:48:56.991Z,99.90
2018-05-27T00:51:23.476Z,99.90
2018-05-27T00:53:58.988Z,99.90
2018-05-27T00:56:25.410Z,99.90
2018-05-27T00:58:51.752Z,99.90
2018-05-27T01:01:18.303Z,99.90
2018-05-27T01:03:44.725Z,99.90
2018-05-27T01:06:11.170Z,99.90
2018-05-27T01:08:37.615Z,99.90
2018-05-27T01:11:04.274Z,99.90
2018-05-27T01:13:31.586Z,99.90
2018-05-27T01:15:58.070Z,99.90
2018-05-27T01:18:24.529Z,99.90
2018-05-27T01:20:50.927Z,99.90
2018-05-27T01:23:19.198Z,99.90
2018-05-27T01:25:46.290Z,99.90
2018-05-27T01:28:12.780Z,99.90
2018-05-27T01:30:39.929Z,99.90
2018-05-27T01:33:07.142Z,99.90
2018-05-27T01:35:33.606Z,99.90
2018-05-27T01:38:00.935Z,99.90
2018-05-27T01:40:27.476Z,99.90
2018-05-27T01:42:53.890Z,99.90
2018-05-27T01:45:20.382Z,99.90
2018-05-27T01:47:46.807Z,99.90
2018-05-27T01:50:13.264Z,99.90
2018-05-27T01:52:39.727Z,99.90
2018-05-27T01:55:06.145Z,99.90
2018-05-27T01:57:32.584Z,99.90
2018-05-27T01:59:58.940Z,99.90
2018-05-27T02:02:26.371Z,99.90
2018-05-27T02:04:52.909Z,99.90
2018-05-27T02:07:19.313Z,99.90
2018-05-27T02:09:45.759Z,99.90
2018-05-27T02:12:12.160Z,99.90
2018-05-27T02:14:38.597Z,99.90
2018-05-27T02:17:05.021Z,99.90
2018-05-27T02:19:31.495Z,99.90
2018-05-27T02:21:57.878Z,99.90
2018-05-27T02:24:25.185Z,99.90
2018-05-27T02:26:52.332Z,99.90
2018-05-27T02:29:18.766Z,99.90
2018-05-27T02:31:45.208Z,99.90
2018-05-27T02:34:11.620Z,99.90
2018-05-27T02:36:38.012Z,99.90
2018-05-27T02:39:05.624Z,99.90
2018-05-27T02:41:32.055Z,99.90
2018-05-27T02:44:02.006Z,99.90
2018-05-27T02:46:28.364Z,99.90
2018-05-27T02:48:54.828Z,99.90
2018-05-27T02:51:21.228Z,99.90
2018-05-27T02:53:47.612Z,99.90
2018-05-27T02:56:14.871Z,99.90
2018-05-27T02:58:42.034Z,99.90
2018-05-27T03:01:08.396Z,99.90
2018-05-27T03:03:35.010Z,99.90
2018-05-27T03:06:01.425Z,99.90
2018-05-27T03:08:28.493Z,99.90
2018-05-27T03:10:54.889Z,99.90
2018-05-27T03:13:25.259Z,99.90
2018-05-27T03:15:51.756Z,99.90
2018-05-27T03:18:19.033Z,99.90
2018-05-27T03:20:45.562Z,99.90
2018-05-27T03:23:11.960Z,99.90
2018-05-27T03:25:38.317Z,99.90
2018-05-27T03:28:05.045Z,99.90
2018-05-27T03:30:32.217Z,99.90
2018-05-27T03:32:58.904Z,99.90
2018-05-27T03:35:25.433Z,99.90
2018-05-27T03:37:52.024Z,99.90
2018-05-27T03:40:18.694Z,99.90
2018-05-27T03:42:45.270Z,99.90
2018-05-27T03:45:12.354Z,99.90
2018-05-27T03:47:38.757Z,99.90
2018-05-27T03:50:05.847Z,99.90
2018-05-27T03:52:32.303Z,99.90
2018-05-27T03:54:58.762Z,99.90
2018-05-27T03:57:25.928Z,99.90
2018-05-27T03:59:52.359Z,99.90
2018-05-27T04:02:18.794Z,99.90
2018-05-27T04:04:58.051Z,99.90
2018-05-27T04:07:36.753Z,99.90
2018-05-27T04:10:03.232Z,99.90
2018-05-27T04:12:29.654Z,99.90
2018-05-27T04:14:56.211Z,99.90
2018-05-27T04:17:22.643Z,99.90
2018-05-27T04:19:49.227Z,99.90
2018-05-27T04:22:15.584Z,99.90
2018-05-27T04:24:42.063Z,99.90
2018-05-27T04:27:09.191Z,99.90
2018-05-27T04:29:35.522Z,99.90
2018-05-27T04:32:02.056Z,99.90
2018-05-27T04:34:28.534Z,99.90
2018-05-27T04:36:54.942Z,99.90
2018-05-27T04:39:22.225Z,99.90
2018-05-27T04:41:48.741Z,99.90
2018-05-27T04:44:15.059Z,99.90
2018-05-27T04:46:42.572Z,99.90
2018-05-27T04:49:08.929Z,99.90
2018-05-27T04:51:35.382Z,99.90
2018-05-27T04:54:01.845Z,99.90
2018-05-27T04:56:28.219Z,99.90
2018-05-27T04:58:54.861Z,99.90
2018-05-27T05:01:21.374Z,99.90
2018-05-27T05:03:47.768Z,99.90
2018-05-27T05:06:14.239Z,99.90
2018-05-27T05:08:40.664Z,99.90
2018-05-27T05:11:07.165Z,99.90
2018-05-27T05:13:33.534Z,99.90
2018-05-27T05:16:00.065Z,99.90
2018-05-27T05:18:26.474Z,99.90
2018-05-27T05:20:53.011Z,99.90
2018-05-27T05:23:19.715Z,99.90
2018-05-27T05:25:46.860Z,99.90
2018-05-27T05:28:13.932Z,99.90
2018-05-27T05:30:40.401Z,99.90
2018-05-27T05:33:06.853Z,99.90
2018-05-27T05:35:33.339Z,99.90
2018-05-27T05:37:59.900Z,99.90
2018-05-27T05:40:26.455Z,99.90
2018-05-27T05:42:52.875Z,99.90
2018-05-27T05:45:19.326Z,99.90
2018-05-27T05:47:45.946Z,99.90
2018-05-27T05:50:12.408Z,99.90
2018-05-27T05:52:39.740Z,99.90
2018-05-27T05:55:06.464Z,99.90
2018-05-27T05:57:32.898Z,99.90
2018-05-27T05:59:59.646Z,99.90
2018-05-27T06:02:26.073Z,99.90
2018-05-27T06:04:52.569Z,99.90
2018-05-27T06:07:19.233Z,99.90
2018-05-27T06:09:45.586Z,99.90
2018-05-27T06:12:12.204Z,99.90
2018-05-27T06:14:39.118Z,99.90
2018-05-27T06:17:05.683Z,99.90
2018-05-27T06:19:32.160Z,99.90
2018-05-27T06:21:58.746Z,99.90
2018-05-27T06:24:25.075Z,99.90
2018-05-27T06:26:51.616Z,99.90
2018-05-27T06:29:17.969Z,99.90
2018-05-27T06:31:45.115Z,99.90
2018-05-27T06:34:11.582Z,99.90
2018-05-27T06:36:38.110Z,99.90
2018-05-27T06:39:05.622Z,99.90
2018-05-27T06:41:32.240Z,99.90
2018-05-27T06:43:58.711Z,99.90
2018-05-27T06:46:25.185Z,99.90
2018-05-27T06:48:51.858Z,99.90
2018-05-27T06:51:18.285Z,99.90
2018-05-27T06:53:44.871Z,99.90
2018-05-27T06:56:11.418Z,99.90
2018-05-27T06:58:38.005Z,99.90
2018-05-27T07:01:04.734Z,99.90
2018-05-27T07:03:31.599Z,99.90
2018-05-27T07:05:58.065Z,99.90
2018-05-27T07:08:25.057Z,99.90
2018-05-27T07:10:51.452Z,99.90
2018-05-27T07:13:18.721Z,99.90
2018-05-27T07:15:45.851Z,99.90
2018-05-27T07:18:12.222Z,99.90
2018-05-27T07:20:38.789Z,99.90
2018-05-27T07:23:05.974Z,99.90
2018-05-27T07:25:32.434Z,99.90
2018-05-27T07:27:58.902Z,99.90
2018-05-27T07:30:26.650Z,99.60
2018-05-27T07:32:53.018Z,99.50
2018-05-27T07:35:19.442Z,99.90
2018-05-27T07:37:46.867Z,99.90
2018-05-27T07:40:13.611Z,99.90
2018-05-27T07:42:40.115Z,98.10
2018-05-27T07:45:06.763Z,97.80
2018-05-27T07:47:33.739Z,97.50
2018-05-27T07:50:01.161Z,98.30
2018-05-27T07:52:27.798Z,98.30
2018-05-27T07:54:54.158Z,98.70
2018-05-27T07:57:21.381Z,99.50
2018-05-27T07:59:47.963Z,99.50
2018-05-27T08:02:14.455Z,99.90
2018-05-27T08:04:41.390Z,99.10
2018-05-27T08:07:07.967Z,99.50
2018-05-27T08:09:34.560Z,99.50
2018-05-27T08:12:01.249Z,99.90
2018-05-27T08:14:28.962Z,99.00
2018-05-27T08:16:55.643Z,99.00
2018-05-27T08:19:22.907Z,98.50
2018-05-27T08:21:49.354Z,98.50
2018-05-27T08:24:15.730Z,98.40
2018-05-27T08:26:42.275Z,97.90
2018-05-27T08:29:08.790Z,99.30
2018-05-27T08:31:36.658Z,98.10
2018-05-27T08:34:04.014Z,98.60
2018-05-27T08:36:31.266Z,98.10
2018-05-27T08:38:57.779Z,97.70
2018-05-27T08:41:24.184Z,97.50
2018-05-27T08:43:50.572Z,97.30
2018-05-27T08:46:17.737Z,98.20
2018-05-27T08:48:45.014Z,98.20
2018-05-27T08:51:11.488Z,98.10
2018-05-27T08:53:38.235Z,98.70
2018-05-27T08:56:04.771Z,98.70
2018-05-27T08:58:31.342Z,98.60
2018-05-27T09:00:57.790Z,99.00
2018-05-27T09:03:25.925Z,98.30
2018-05-27T09:05:52.341Z,97.90
2018-05-27T09:08:18.805Z,97.80
2018-05-27T09:10:46.023Z,99.10
2018-05-27T09:13:12.692Z,99.00
2018-05-27T09:15:39.986Z,98.60
2018-05-27T09:18:06.490Z,98.60
2018-05-27T09:20:33.864Z,97.90
2018-05-27T09:23:00.303Z,97.90
2018-05-27T09:25:26.808Z,98.20
2018-05-27T09:27:54.019Z,97.50
2018-05-27T09:30:20.713Z,97.50
2018-05-27T09:32:47.189Z,97.80
2018-05-27T09:35:14.880Z,97.40
2018-05-27T09:37:41.326Z,98.50
2018-05-27T09:40:07.840Z,97.80
2018-05-27T09:42:34.262Z,97.80
2018-05-27T09:45:00.648Z,98.50
2018-05-27T09:47:27.503Z,98.80
2018-05-27T09:49:53.954Z,99.20
2018-05-27T09:52:20.375Z,99.30
2018-05-27T09:54:46.751Z,99.60
2018-05-27T09:57:14.070Z,99.90
2018-05-27T09:59:40.473Z,99.90
2018-05-27T10:02:07.150Z,99.90
2018-05-27T10:04:33.614Z,99.90
2018-05-27T10:07:00.826Z,99.90
2018-05-27T10:09:27.402Z,99.90
2018-05-27T10:11:54.738Z,99.90
2018-05-27T10:14:21.257Z,99.90
2018-05-27T10:16:47.659Z,99.90
2018-05-27T10:19:14.203Z,99.90
2018-05-27T10:21:40.741Z,99.90
2018-05-27T10:24:07.248Z,99.90
2018-05-27T10:26:34.475Z,99.90
2018-05-27T10:29:01.012Z,99.90
2018-05-27T10:31:28.210Z,99.90
2018-05-27T10:33:54.627Z,99.90
2018-05-27T10:36:21.013Z,99.90
2018-05-27T10:38:48.171Z,99.90
2018-05-27T10:41:15.692Z,99.90
2018-05-27T10:43:42.020Z,99.90
2018-05-27T10:46:08.519Z,99.90
2018-05-27T10:48:35.647Z,99.90
2018-05-27T10:51:02.108Z,99.90
2018-05-27T10:53:28.617Z,99.90
2018-05-27T10:55:55.937Z,99.90
2018-05-27T10:58:23.149Z,99.90
2018-05-27T11:00:49.861Z,99.90
2018-05-27T11:03:16.224Z,99.90
2018-05-27T11:05:42.796Z,99.90
2018-05-27T11:08:09.158Z,99.90
2018-05-27T11:10:36.663Z,99.90
2018-05-27T11:13:03.935Z,99.90
2018-05-27T11:15:30.487Z,99.90
2018-05-27T11:17:57.784Z,99.90
2018-05-27T11:20:24.393Z,99.90
2018-05-27T11:22:51.046Z,99.90
2018-05-27T11:25:17.485Z,99.90
2018-05-27T11:27:44.013Z,99.90
2018-05-27T11:30:10.506Z,99.90
2018-05-27T11:32:37.015Z,99.90
2018-05-27T11:35:03.406Z,99.90
2018-05-27T11:37:29.849Z,99.90
2018-05-27T11:39:56.316Z,99.90
2018-05-27T11:42:22.775Z,99.90
2018-05-27T11:44:50.100Z,99.90
2018-05-27T11:47:16.456Z,99.90
2018-05-27T11:49:42.770Z,99.90
2018-05-27T11:52:09.309Z,99.90
2018-05-27T11:54:35.859Z,99.90
2018-05-27T11:57:03.108Z,99.90
2018-05-27T11:59:29.527Z,99.90
2018-05-27T12:01:56.191Z,99.90
2018-05-27T12:04:22.526Z,99.90
2018-05-27T12:06:50.544Z,99.90
2018-05-27T12:09:17.129Z,99.90
2018-05-27T12:11:43.746Z,99.90
2018-05-27T12:14:10.679Z,99.90
2018-05-27T12:16:37.099Z,99.90
2018-05-27T12:19:03.561Z,99.90
2018-05-27T12:21:30.724Z,99.90
2018-05-27T12:23:57.432Z,99.90
2018-05-27T12:26:23.812Z,99.90
2018-05-27T12:28:50.276Z,99.90
2018-05-27T12:31:16.609Z,99.90
2018-05-27T12:33:42.997Z,99.90
2018-05-27T12:36:09.450Z,99.90
2018-05-27T12:38:35.829Z,99.90
2018-05-27T12:41:03.166Z,99.90
2018-05-27T12:43:31.129Z,99.90
2018-05-27T12:45:57.540Z,99.90
2018-05-27T12:48:23.975Z,99.90
2018-05-27T12:50:50.387Z,99.90
2018-05-27T12:53:16.887Z,99.90
2018-05-27T12:55:44.016Z,99.90
2018-05-27T12:58:10.517Z,99.90
2018-05-27T13:00:37.042Z,99.90
2018-05-27T13:03:03.539Z,99.90
2018-05-27T13:05:30.862Z,99.90
2018-05-27T13:07:57.296Z,99.90
2018-05-27T13:10:23.641Z,99.90
2018-05-27T13:12:50.007Z,99.90
2018-05-27T13:15:16.567Z,99.90
2018-05-27T13:17:43.035Z,99.90
2018-05-27T13:20:09.390Z,98.50
2018-05-27T13:22:36.549Z,98.50
2018-05-27T13:25:03.116Z,98.40
2018-05-27T13:27:29.554Z,99.90
2018-05-27T13:29:56.390Z,99.30
2018-05-27T13:32:22.808Z,99.90
2018-05-27T13:34:49.201Z,99.90
2018-05-27T13:37:15.641Z,99.90
2018-05-27T13:39:42.128Z,99.90
2018-05-27T13:42:08.721Z,99.90
2018-05-27T13:44:35.827Z,98.70
2018-05-27T13:47:02.152Z,98.70
2018-05-27T13:49:28.554Z,99.90
2018-05-27T13:51:55.004Z,99.40
2018-05-27T13:54:21.341Z,99.30
2018-05-27T13:56:47.824Z,99.90
2018-05-27T13:59:14.958Z,99.90
2018-05-27T14:01:41.559Z,99.90
2018-05-27T14:04:08.024Z,99.90
2018-05-27T14:06:36.088Z,99.90
2018-05-27T14:09:02.535Z,99.90
2018-05-27T14:11:29.697Z,99.90
2018-05-27T14:13:58.068Z,99.90
2018-05-27T14:16:25.297Z,99.90
2018-05-27T14:18:52.675Z,99.90
2018-05-27T14:21:19.963Z,99.90
2018-05-27T14:23:47.502Z,99.90
2018-05-27T14:26:14.612Z,99.90
2018-05-27T14:28:40.956Z,99.90
2018-05-27T14:31:08.009Z,99.90
2018-05-27T14:33:34.509Z,99.90
2018-05-27T14:36:00.886Z,99.90
2018-05-27T14:38:28.071Z,99.90
2018-05-27T14:40:54.520Z,99.90
2018-05-27T14:43:21.002Z,99.90
2018-05-27T14:45:48.123Z,99.90
2018-05-27T14:48:14.606Z,99.90
2018-05-27T14:50:41.104Z,99.90
2018-05-27T14:53:08.320Z,99.90
2018-05-27T14:55:34.861Z,99.90
2018-05-27T14:58:01.318Z,99.90
2018-05-27T15:00:28.500Z,99.90
2018-05-27T15:02:54.937Z,99.90
2018-05-27T15:05:21.343Z,99.90
2018-05-27T15:07:48.531Z,99.90
2018-05-27T15:10:15.763Z,99.90
2018-05-27T15:12:43.086Z,99.90
2018-05-27T15:15:09.548Z,99.90
2018-05-27T15:17:36.772Z,99.90
2018-05-27T15:20:03.232Z,99.90
2018-05-27T15:22:29.779Z,99.90
2018-05-27T15:24:56.234Z,99.90
2018-05-27T15:27:22.692Z,99.90
2018-05-27T15:29:49.149Z,99.90
2018-05-27T15:32:16.523Z,99.90
2018-05-27T15:34:43.654Z,99.90
2018-05-27T15:37:10.820Z,99.90
2018-05-27T15:39:37.245Z,99.90
2018-05-27T15:42:04.457Z,99.90
2018-05-27T15:44:30.941Z,99.90
2018-05-27T15:46:57.442Z,99.90
2018-05-27T15:49:24.586Z,99.90
2018-05-27T15:51:51.176Z,99.90
2018-05-27T15:54:17.523Z,99.90
2018-05-27T15:56:43.872Z,99.90
2018-05-27T15:59:10.348Z,99.90
2018-05-27T16:01:38.378Z,99.90
2018-05-27T16:04:05.112Z,99.90
2018-05-27T16:06:31.535Z,99.90
2018-05-27T16:08:58.511Z,99.90
2018-05-27T16:11:25.701Z,99.90
2018-05-27T16:13:52.361Z,99.90
2018-05-27T16:16:18.816Z,99.90
2018-05-27T16:18:45.319Z,99.90
2018-05-27T16:21:12.054Z,99.90
2018-05-27T16:23:39.598Z,99.90
2018-05-27T16:26:06.085Z,99.90
2018-05-27T16:28:32.686Z,99.90
2018-05-27T16:30:59.247Z,99.90
2018-05-27T16:33:25.842Z,99.90
2018-05-27T16:35:52.212Z,99.90
2018-05-27T16:38:18.960Z,99.90
2018-05-27T16:40:45.531Z,99.90
2018-05-27T16:43:12.734Z,99.90
2018-05-27T16:45:39.189Z,99.90
2018-05-27T16:48:05.627Z,99.90
2018-05-27T16:50:32.083Z,99.90
2018-05-27T16:52:59.847Z,99.90
2018-05-27T16:55:26.331Z,99.90
2018-05-27T16:57:52.825Z,99.90
2018-05-27T17:00:19.306Z,99.90
2018-05-27T17:02:45.688Z,99.90
2018-05-27T17:05:12.239Z,99.90
2018-05-27T17:07:39.025Z,99.90
2018-05-27T17:10:05.510Z,99.90
2018-05-27T17:12:32.038Z,99.90
2018-05-27T17:14:59.956Z,99.90
2018-05-27T17:17:26.413Z,99.90
2018-05-27T17:19:53.655Z,99.90
2018-05-27T17:22:20.270Z,99.90
2018-05-27T17:24:46.747Z,99.90
2018-05-27T17:27:13.890Z,99.90
2018-05-27T17:29:41.076Z,99.90
2018-05-27T17:32:08.351Z,99.90
2018-05-27T17:34:34.846Z,99.90
2018-05-27T17:37:01.261Z,99.90
2018-05-27T17:39:28.448Z,99.90
2018-05-27T17:41:55.009Z,99.90
2018-05-27T17:44:21.546Z,99.90
2018-05-27T17:46:47.943Z,99.90
2018-05-27T17:49:14.516Z,99.90
2018-05-27T17:51:42.115Z,99.90
2018-05-27T17:54:08.539Z,99.90
2018-05-27T17:56:36.471Z,99.90
2018-05-27T17:59:03.204Z,99.90
2018-05-27T18:01:29.805Z,99.90
2018-05-27T18:03:56.175Z,99.90
2018-05-27T18:06:22.748Z,99.90
2018-05-27T18:08:50.001Z,99.90
2018-05-27T18:11:17.124Z,99.90
2018-05-27T18:13:44.983Z,99.90
2018-05-27T18:16:11.968Z,99.90
2018-05-27T18:18:38.452Z,99.90
2018-05-27T18:21:04.953Z,99.90
2018-05-27T18:23:31.473Z,99.90
2018-05-27T18:25:58.131Z,99.90
2018-05-27T18:28:24.522Z,99.90
2018-05-27T18:30:52.049Z,99.90
2018-05-27T18:33:19.098Z,99.90
2018-05-27T18:35:45.594Z,99.90
2018-05-27T18:38:12.012Z,99.90
2018-05-27T18:40:39.117Z,99.90
2018-05-27T18:43:05.752Z,99.90
2018-05-27T18:45:32.195Z,99.90
2018-05-27T18:47:58.620Z,99.90
2018-05-27T18:50:25.063Z,99.90
2018-05-27T18:52:51.783Z,99.90
2018-05-27T18:55:18.167Z,99.90
2018-05-27T18:57:44.874Z,99.90
2018-05-27T19:00:11.649Z,99.90
2018-05-27T19:02:38.378Z,99.90
2018-05-27T19:05:05.543Z,99.90
2018-05-27T19:07:32.906Z,99.90
2018-05-27T19:09:59.497Z,99.90
2018-05-27T19:12:26.175Z,99.90
2018-05-27T19:14:53.499Z,99.90
2018-05-27T19:17:20.703Z,99.90
2018-05-27T19:19:47.301Z,99.90
2018-05-27T19:22:13.784Z,99.90
2018-05-27T19:24:40.273Z,99.90
2018-05-27T19:27:07.066Z,99.90
2018-05-27T19:29:33.472Z,99.90
2018-05-27T19:31:59.968Z,99.90
2018-05-27T19:34:27.208Z,99.90
2018-05-27T19:36:54.480Z,99.90
2018-05-27T19:39:20.965Z,99.90
2018-05-27T19:41:47.543Z,99.90
2018-05-27T19:44:14.004Z,99.90
2018-05-27T19:46:40.488Z,99.90
2018-05-27T19:49:07.922Z,99.90
2018-05-27T19:51:35.121Z,99.90
2018-05-27T19:54:01.479Z,99.90
2018-05-27T19:56:27.820Z,99.90
2018-05-27T19:58:54.312Z,99.90
2018-05-27T20:01:20.749Z,99.90
2018-05-27T20:03:49.185Z,99.90
2018-05-27T20:06:15.529Z,99.90
2018-05-27T20:08:41.889Z,99.90
2018-05-27T20:11:08.343Z,99.90
2018-05-27T20:13:34.712Z,99.90
2018-05-27T20:16:01.168Z,99.90
2018-05-27T20:18:28.377Z,99.90
2018-05-27T20:20:54.810Z,99.90
2018-05-27T20:23:21.214Z,99.90
2018-05-27T20:25:47.612Z,99.90
2018-05-27T20:28:14.976Z,99.90
2018-05-27T20:30:42.127Z,99.90
2018-05-27T20:33:10.087Z,99.90
2018-05-27T20:35:37.359Z,99.90
2018-05-27T20:38:04.509Z,99.90
2018-05-27T20:40:30.897Z,99.90
2018-05-27T20:42:57.244Z,99.90
2018-05-27T20:45:24.355Z,99.90
2018-05-27T20:47:50.760Z,99.90
2018-05-27T20:50:17.167Z,99.90
2018-05-27T20:52:44.422Z,99.90
2018-05-27T20:55:10.745Z,99.90
2018-05-27T20:57:37.853Z,99.90
2018-05-27T21:00:04.367Z,99.90
2018-05-27T21:02:30.790Z,99.90
2018-05-27T21:04:57.129Z,99.90
2018-05-27T21:07:23.511Z,99.90
2018-05-27T21:09:50.705Z,99.90
2018-05-27T21:12:17.274Z,99.90
2018-05-27T21:14:45.387Z,99.90
2018-05-27T21:17:11.734Z,99.90
2018-05-27T21:19:38.164Z,99.90
2018-05-27T21:22:04.596Z,99.90
2018-05-27T21:24:31.138Z,99.90
2018-05-27T21:26:57.652Z,99.90
2018-05-27T21:29:24.271Z,99.90
2018-05-27T21:31:51.429Z,99.90
2018-05-27T21:34:17.853Z,99.90
2018-05-27T21:36:45.127Z,99.90
2018-05-27T21:39:11.507Z,99.90
2018-05-27T21:41:38.043Z,99.90
2018-05-27T21:44:05.663Z,99.90
2018-05-27T21:46:32.134Z,99.90
2018-05-27T21:48:58.569Z,99.90
2018-05-27T21:51:25.028Z,99.90
2018-05-27T21:53:52.343Z,99.90
2018-05-27T21:56:18.828Z,99.90
2018-05-27T21:58:45.167Z,99.90
2018-05-27T22:01:12.278Z,99.90
2018-05-27T22:03:38.613Z,99.90
2018-05-27T22:06:05.026Z,99.90
2018-05-27T22:08:31.503Z,99.90
2018-05-27T22:10:57.820Z,99.90
2018-05-27T22:13:28.372Z,99.90
2018-05-27T22:15:55.658Z,99.90
2018-05-27T22:18:21.986Z,99.90
2018-05-27T22:20:48.427Z,99.90
2018-05-27T22:23:14.774Z,99.90
2018-05-27T22:25:41.209Z,99.90
2018-05-27T22:28:09.121Z,99.90
2018-05-27T22:30:35.551Z,99.90
2018-05-27T22:33:01.923Z,99.90
2018-05-27T22:35:28.392Z,99.90
2018-05-27T22:37:55.487Z,99.90
2018-05-27T22:40:21.989Z,99.90
2018-05-27T22:42:48.528Z,99.90
2018-05-27T22:45:14.918Z,99.90
2018-05-27T22:47:42.080Z,99.90
2018-05-27T22:50:09.335Z,99.90
2018-05-27T22:52:36.521Z,99.90
2018-05-27T22:55:02.879Z,99.90
2018-05-27T22:57:29.197Z,99.90
2018-05-27T22:59:55.646Z,99.90
2018-05-27T23:02:21.970Z,99.90
2018-05-27T23:04:48.351Z,99.90
2018-05-27T23:07:15.471Z,99.90
2018-05-27T23:09:41.881Z,99.90
2018-05-27T23:12:08.325Z,99.90
2018-05-27T23:14:36.682Z,99.90
2018-05-27T23:17:03.017Z,99.90
2018-05-27T23:19:29.431Z,99.90
2018-05-27T23:21:55.828Z,99.90
2018-05-27T23:24:22.214Z,99.90
2018-05-27T23:26:48.577Z,99.90
2018-05-27T23:29:15.670Z,99.90
2018-05-27T23:31:42.125Z,99.90
2018-05-27T23:34:08.603Z,99.90
2018-05-27T23:36:35.907Z,99.90
2018-05-27T23:39:02.431Z,99.90
2018-05-27T23:41:28.813Z,99.90
2018-05-27T23:43:55.928Z,99.90
2018-05-27T23:46:22.305Z,99.90
2018-05-27T23:48:49.410Z,99.90
2018-05-27T23:51:16.454Z,99.90
2018-05-27T23:53:42.805Z,99.90
2018-05-27T23:56:10.607Z,99.90
2018-05-27T23:58:36.984Z,99.90
